Leslie, Michigan
Current Conditions -  °F | °C
As of 3:32 AM on Saturday 25 Oct 2014 (Local Time) from KTEW Reporting Station
Haze Haze  
Wind Chill: 44°   Ceiling: 10000
Heat Index: 44°   Visibility: 2.5mi
Dew Point: 43°   Wind: 3mph
Humidity: 97%   Direction: 160°SSE
Pressure: 29.89"   Gusts: NA
Location:  42.45°N, 84.43°W
Report Text: KTEW 250732Z AUTO 16003KT 2 1/2SM BR BKN100 07/06 A2989 RMK AO2 T00670063
Loading
Personal Weather Stations






























Interactive Weather Map
Tropical Storm Tracking
New forecast layout! Learn more

10-Day Weather Forecast

Advertisements
Track Severe Weather on mobile